Time;durP1;ratioP1;P1;durP2;ratioP2;P2;SDS_P1;SDS_P2;PMS_P1;PMS_P2;Temp;Humidity;BMP_temperature;BMP_pressure;BME280_temperature;BME280_humidity;BME280_pressure;Samples;Min_cycle;Max_cycle;Signal;HPM_P1;HPM_P2
2021/06/05 00:00:45;;;;;;;8.15;4.00;;;21.70;99.90;;;;;;5071428;28;20293;-60
2021/06/05 00:03:14;;;;;;;7.72;4.63;;;21.70;99.90;;;;;;5070989;28;20217;-60
2021/06/05 00:05:42;;;;;;;7.85;4.30;;;21.70;99.90;;;;;;5070638;28;20228;-60
2021/06/05 00:08:10;;;;;;;8.23;4.28;;;21.70;99.90;;;;;;5070665;28;20201;-61
2021/06/05 00:10:41;;;;;;;7.40;4.63;;;21.70;99.90;;;;;;5070722;28;20204;-60
2021/06/05 00:13:08;;;;;;;6.03;4.45;;;21.70;99.90;;;;;;5070677;28;20232;-60
2021/06/05 00:15:37;;;;;;;7.40;4.70;;;21.60;99.90;;;;;;5070685;28;20225;-61
2021/06/05 00:18:04;;;;;;;6.63;4.30;;;21.60;99.90;;;;;;5072135;28;20201;-60
2021/06/05 00:20:30;;;;;;;5.82;4.45;;;21.50;99.90;;;;;;5074533;28;20229;-61
2021/06/05 00:22:58;;;;;;;7.85;4.78;;;21.40;99.90;;;;;;5074548;28;20700;-60
2021/06/05 00:25:26;;;;;;;7.50;4.40;;;21.40;99.90;;;;;;5074080;28;20262;-61
2021/06/05 00:27:54;;;;;;;11.65;5.80;;;21.40;99.90;;;;;;5074447;28;20201;-61
2021/06/05 00:30:21;;;;;;;7.00;4.72;;;21.40;99.90;;;;;;5074417;28;20232;-60
2021/06/05 00:32:47;;;;;;;5.30;4.35;;;21.40;99.90;;;;;;5074414;28;20208;-61
2021/06/05 00:35:14;;;;;;;6.05;4.22;;;21.30;99.90;;;;;;5074159;28;20232;-61
2021/06/05 00:37:41;;;;;;;9.13;4.75;;;21.30;99.90;;;;;;5074058;28;20208;-61
2021/06/05 00:40:09;;;;;;;9.45;4.88;;;21.30;99.90;;;;;;5073912;28;20220;-61
2021/06/05 00:42:36;;;;;;;8.38;4.63;;;21.20;99.90;;;;;;5074253;28;20209;-60
2021/06/05 00:45:05;;;;;;;8.18;5.38;;;21.10;99.90;;;;;;5074154;28;20221;-61
2021/06/05 00:47:31;;;;;;;7.75;5.20;;;21.00;99.90;;;;;;5074148;28;20205;-61
2021/06/05 00:49:58;;;;;;;9.13;5.80;;;20.90;99.90;;;;;;5073883;28;20205;-60
2021/06/05 00:52:26;;;;;;;7.72;5.32;;;21.00;99.90;;;;;;5073956;28;20208;-60
2021/06/05 00:54:53;;;;;;;7.90;5.30;;;20.90;99.90;;;;;;5074036;28;20228;-59
2021/06/05 00:57:19;;;;;;;7.85;5.20;;;20.90;99.90;;;;;;5074079;28;20213;-59
2021/06/05 00:59:45;;;;;;;5.40;4.55;;;20.90;99.90;;;;;;5073869;28;20228;-59
2021/06/05 01:02:13;;;;;;;8.98;5.13;;;20.80;99.90;;;;;;5074009;28;20270;-59
2021/06/05 01:04:41;;;;;;;5.82;4.68;;;20.70;99.90;;;;;;5073681;28;20370;-59
2021/06/05 01:07:12;;;;;;;5.53;4.30;;;20.80;99.90;;;;;;5073487;28;20205;-59
2021/06/05 01:09:45;;;;;;;6.03;4.15;;;20.60;99.90;;;;;;5073693;28;20216;-59
2021/06/05 01:12:19;;;;;;;6.90;3.60;;;20.50;99.90;;;;;;5073687;28;20211;-59
2021/06/05 01:14:49;;;;;;;4.22;3.28;;;20.50;99.90;;;;;;5073445;28;20270;-59
2021/06/05 01:17:22;;;;;;;5.68;3.53;;;20.40;99.90;;;;;;5073284;28;20205;-59
2021/06/05 01:19:55;;;;;;;4.53;3.15;;;20.30;99.90;;;;;;5073243;28;20428;-59
2021/06/05 01:22:43;;;;;;;5.70;2.90;;;20.20;99.90;;;;;;5073358;28;20278;-59
2021/06/05 01:25:21;;;;;;;4.38;2.78;;;20.00;99.90;;;;;;5072984;28;20233;-59
2021/06/05 01:27:54;;;;;;;7.07;2.83;;;19.90;99.90;;;;;;5073217;28;20258;-59
2021/06/05 01:30:26;;;;;;;4.50;2.47;;;19.90;99.90;;;;;;5072720;28;20204;-59
2021/06/05 01:32:53;;;;;;;4.28;2.20;;;19.80;99.90;;;;;;5073435;28;20668;-59
2021/06/05 01:35:22;;;;;;;4.13;1.92;;;19.70;99.90;;;;;;5073021;28;20228;-61
2021/06/05 01:37:48;;;;;;;2.40;1.80;;;19.60;99.90;;;;;;5073146;28;20258;-59
2021/06/05 01:40:16;;;;;;;8.98;1.98;;;19.50;99.90;;;;;;5073454;28;20221;-59
2021/06/05 01:42:45;;;;;;;2.90;2.00;;;19.50;99.90;;;;;;5072931;28;20213;-59
2021/06/05 01:45:19;;;;;;;2.70;1.85;;;19.50;99.90;;;;;;5072946;28;20489;-59
2021/06/05 01:47:45;;;;;;;2.78;1.95;;;19.40;99.90;;;;;;5072958;28;20216;-59
2021/06/05 01:50:14;;;;;;;9.10;2.17;;;19.30;99.90;;;;;;5072819;28;20664;-60
2021/06/05 01:52:41;;;;;;;3.25;1.60;;;19.30;99.90;;;;;;5072632;28;20224;-60
2021/06/05 01:55:11;;;;;;;5.05;1.80;;;19.20;99.90;;;;;;5072364;28;20640;-59
2021/06/05 01:57:40;;;;;;;4.05;1.70;;;19.00;99.90;;;;;;5072876;28;20227;-59
2021/06/05 02:00:10;;;;;;;2.40;1.52;;;19.00;99.90;;;;;;5072632;28;20221;-59
2021/06/05 02:02:37;;;;;;;2.15;1.58;;;19.00;99.90;;;;;;5072570;28;20220;-59
2021/06/05 02:05:05;;;;;;;2.60;1.80;;;19.00;99.90;;;;;;5072366;28;20231;-60
2021/06/05 02:07:32;;;;;;;2.08;1.80;;;19.00;99.90;;;;;;5072468;28;20264;-60
2021/06/05 02:09:58;;;;;;;3.88;1.85;;;18.90;99.90;;;;;;5072537;28;20205;-61
2021/06/05 02:12:29;;;;;;;1.83;1.70;;;19.00;99.90;;;;;;5072690;28;20212;-60
2021/06/05 02:14:59;;;;;;;2.88;1.80;;;19.00;99.90;;;;;;5072382;28;20235;-60
2021/06/05 02:17:27;;;;;;;5.10;1.77;;;19.00;99.90;;;;;;5072298;28;20212;-60
2021/06/05 02:19:59;;;;;;;2.35;1.60;;;19.00;99.90;;;;;;5072123;28;20221;-60
2021/06/05 02:22:30;;;;;;;3.25;1.65;;;19.00;99.90;;;;;;5072233;28;20209;-60
2021/06/05 02:24:59;;;;;;;2.92;1.75;;;19.00;99.90;;;;;;5071825;28;20239;-61
2021/06/05 02:27:28;;;;;;;4.63;1.63;;;19.00;99.90;;;;;;5072404;28;20212;-61
2021/06/05 02:29:56;;;;;;;2.63;1.55;;;19.00;99.90;;;;;;5072131;28;20204;-60
2021/06/05 02:32:25;;;;;;;4.97;1.75;;;19.10;99.90;;;;;;5072505;28;20212;-61
2021/06/05 02:34:53;;;;;;;2.38;1.48;;;19.10;99.90;;;;;;5071969;28;20228;-61
2021/06/05 02:37:25;;;;;;;2.27;1.83;;;19.10;99.90;;;;;;5072318;28;20675;-60
2021/06/05 02:39:54;;;;;;;2.92;1.40;;;19.00;99.90;;;;;;5072243;28;20228;-61
2021/06/05 02:42:22;;;;;;;2.33;1.60;;;19.00;99.90;;;;;;5072367;28;20213;-60
2021/06/05 02:44:51;;;;;;;2.75;1.88;;;19.00;99.90;;;;;;5072187;28;20229;-60
2021/06/05 02:47:18;;;;;;;13.98;11.45;;;19.00;99.90;;;;;;5072151;28;20258;-60
2021/06/05 02:49:45;;;;;;;17.20;15.37;;;19.00;99.90;;;;;;5072291;28;20296;-60
2021/06/05 02:52:28;;;;;;;2.88;2.45;;;18.90;99.90;;;;;;5072600;28;20201;-61
2021/06/05 02:54:56;;;;;;;4.13;2.30;;;18.90;99.90;;;;;;5072216;28;20484;-60
2021/06/05 02:57:23;;;;;;;3.80;2.25;;;18.80;99.90;;;;;;5072532;28;20201;-60
2021/06/05 02:59:49;;;;;;;2.13;1.90;;;18.80;99.90;;;;;;5072166;28;20223;-61
2021/06/05 03:02:15;;;;;;;1.87;1.57;;;18.70;99.90;;;;;;5072530;28;20205;-60
2021/06/05 03:04:42;;;;;;;3.35;1.90;;;18.70;99.90;;;;;;5072594;28;20232;-60
2021/06/05 03:07:08;;;;;;;4.03;2.23;;;18.70;99.90;;;;;;5072281;28;20210;-60
2021/06/05 03:09:35;;;;;;;4.57;2.20;;;18.60;99.90;;;;;;5071746;28;20205;-61
2021/06/05 03:12:05;;;;;;;3.13;2.33;;;18.60;99.90;;;;;;5071798;28;20205;-60
2021/06/05 03:14:31;;;;;;;2.80;2.10;;;18.60;99.90;;;;;;5071318;28;20250;-60
2021/06/05 03:16:57;;;;;;;7.88;6.22;;;18.50;99.90;;;;;;5071260;28;20668;-60
2021/06/05 03:19:24;;;;;;;5.77;3.97;;;18.50;99.90;;;;;;5071249;28;20525;-60
2021/06/05 03:21:50;;;;;;;3.28;2.05;;;18.40;99.90;;;;;;5071273;28;20681;-60
2021/06/05 03:24:16;;;;;;;4.43;2.72;;;18.40;99.90;;;;;;5071326;28;20229;-61
2021/06/05 03:26:42;;;;;;;6.33;2.63;;;18.40;99.90;;;;;;5071200;28;20205;-61
2021/06/05 03:29:10;;;;;;;3.53;2.73;;;18.40;99.90;;;;;;5071018;28;20664;-60
2021/06/05 03:31:36;;;;;;;3.53;2.10;;;18.40;99.90;;;;;;5071362;28;20212;-60
2021/06/05 03:34:02;;;;;;;2.97;2.20;;;18.40;99.90;;;;;;5071036;28;20220;-60
2021/06/05 03:36:29;;;;;;;2.53;1.93;;;18.40;99.90;;;;;;5071339;28;20213;-61
2021/06/05 03:38:56;;;;;;;3.13;2.07;;;18.30;99.90;;;;;;5070951;28;20262;-61
2021/06/05 03:41:22;;;;;;;3.07;2.23;;;18.30;99.90;;;;;;5070793;28;20708;-60
2021/06/05 03:43:49;;;;;;;5.53;2.40;;;18.30;99.90;;;;;;5071036;28;20286;-60
2021/06/05 03:46:17;;;;;;;6.70;2.70;;;18.30;99.90;;;;;;5071053;28;20205;-61
2021/06/05 03:48:43;;;;;;;3.77;2.40;;;18.20;99.90;;;;;;5071003;28;20205;-61
2021/06/05 03:51:11;;;;;;;3.27;2.40;;;18.20;99.90;;;;;;5071102;28;20277;-61
2021/06/05 03:53:37;;;;;;;4.03;2.50;;;18.20;99.90;;;;;;5072879;28;20204;-60
2021/06/05 03:56:04;;;;;;;3.70;2.30;;;18.20;99.90;;;;;;5074950;28;20209;-61
2021/06/05 03:58:37;;;;;;;6.03;2.50;;;18.20;99.90;;;;;;5074972;28;20220;-61
2021/06/05 04:01:04;;;;;;;4.97;3.23;;;18.30;99.90;;;;;;5074948;28;20232;-60
2021/06/05 04:03:32;;;;;;;4.60;2.27;;;18.40;99.90;;;;;;5074712;28;20213;-60
2021/06/05 04:05:58;;;;;;;4.82;2.88;;;18.60;99.90;;;;;;5074812;28;20212;-61
2021/06/05 04:08:25;;;;;;;6.43;3.58;;;18.70;99.90;;;;;;5074581;28;20736;-61
2021/06/05 04:10:51;;;;;;;5.40;2.50;;;18.80;99.90;;;;;;5075162;28;20208;-60
2021/06/05 04:13:17;;;;;;;3.25;2.20;;;18.90;99.90;;;;;;5075141;28;20205;-60
2021/06/05 04:15:44;;;;;;;3.72;2.05;;;19.00;99.90;;;;;;5074683;28;20224;-61
2021/06/05 04:18:12;;;;;;;7.38;2.08;;;19.20;99.90;;;;;;5074664;28;20215;-60
2021/06/05 04:20:41;;;;;;;3.40;1.60;;;19.40;99.90;;;;;;5074561;28;20294;-60
2021/06/05 04:23:10;;;;;;;2.20;1.77;;;19.70;99.90;;;;;;5074438;28;20749;-61
2021/06/05 04:25:37;;;;;;;2.88;1.80;;;20.00;99.90;;;;;;5074213;28;20727;-60
2021/06/05 04:28:05;;;;;;;2.10;1.35;;;20.20;99.90;;;;;;5074503;28;20582;-61
2021/06/05 04:30:33;;;;;;;2.10;1.63;;;20.50;99.90;;;;;;5074559;28;20213;-60
2021/06/05 04:32:59;;;;;;;3.67;1.90;;;20.70;99.90;;;;;;5074301;28;20680;-61
2021/06/05 04:35:26;;;;;;;4.28;2.58;;;21.00;99.90;;;;;;5073850;28;20711;-60
2021/06/05 04:37:53;;;;;;;6.35;1.90;;;21.10;99.90;;;;;;5073995;28;20231;-60
2021/06/05 04:40:21;;;;;;;9.00;3.03;;;21.10;99.90;;;;;;5074360;28;20638;-61
2021/06/05 04:42:47;;;;;;;9.30;3.90;;;21.10;99.90;;;;;;5074139;28;20215;-61
2021/06/05 04:45:14;;;;;;;5.32;3.03;;;21.00;99.90;;;;;;5073817;28;20294;-60
2021/06/05 04:47:40;;;;;;;3.65;2.60;;;20.90;99.90;;;;;;5074062;28;20250;-60
2021/06/05 04:50:10;;;;;;;5.07;3.00;;;20.80;99.90;;;;;;5074310;28;20197;-60
2021/06/05 04:52:37;;;;;;;5.07;1.85;;;20.80;99.90;;;;;;5073978;28;20216;-60
2021/06/05 04:55:06;;;;;;;8.02;2.78;;;20.70;99.90;;;;;;5073632;28;20229;-61
2021/06/05 04:57:32;;;;;;;2.45;2.25;;;20.80;99.90;;;;;;5073789;28;20211;-60
2021/06/05 04:59:59;;;;;;;5.85;2.00;;;20.70;99.90;;;;;;5073607;28;20221;-60
2021/06/05 05:02:25;;;;;;;6.25;1.88;;;20.70;99.90;;;;;;5073548;28;20208;-60
2021/06/05 05:04:51;;;;;;;4.45;1.70;;;20.70;99.90;;;;;;5073417;28;20787;-60
2021/06/05 05:07:18;;;;;;;3.65;1.63;;;20.70;99.90;;;;;;5073547;28;20680;-61
2021/06/05 05:09:45;;;;;;;5.10;1.90;;;20.60;99.90;;;;;;5073643;28;20205;-61
2021/06/05 05:12:13;;;;;;;4.55;2.17;;;20.60;99.90;;;;;;5073602;28;20266;-60
2021/06/05 05:14:39;;;;;;;4.93;1.25;;;20.70;99.90;;;;;;5073266;28;20221;-61
2021/06/05 05:17:06;;;;;;;2.95;1.20;;;20.70;99.90;;;;;;5073943;28;20208;-60
2021/06/05 05:19:33;;;;;;;2.90;1.55;;;20.80;99.90;;;;;;5073525;28;20216;-60
2021/06/05 05:21:59;;;;;;;2.72;1.15;;;20.80;99.90;;;;;;5073463;28;20208;-61
2021/06/05 05:24:26;;;;;;;1.20;0.90;;;20.80;99.90;;;;;;5073064;28;20289;-61
2021/06/05 05:26:52;;;;;;;1.42;1.05;;;20.80;99.90;;;;;;5073204;28;20607;-60
2021/06/05 05:29:20;;;;;;;3.25;1.30;;;20.90;99.90;;;;;;5073119;28;20212;-61
2021/06/05 05:31:47;;;;;;;4.50;2.25;;;21.00;99.90;;;;;;5073284;28;20664;-60
2021/06/05 05:34:13;;;;;;;3.33;1.73;;;21.30;99.90;;;;;;5073437;28;20226;-61
2021/06/05 05:36:41;;;;;;;10.10;1.80;;;21.40;99.90;;;;;;5073636;28;20201;-60
2021/06/05 05:39:09;;;;;;;4.25;1.70;;;21.50;99.90;;;;;;5073297;28;20205;-61
2021/06/05 05:41:37;;;;;;;3.33;1.33;;;21.50;99.90;;;;;;5073239;28;20243;-61
2021/06/05 05:44:03;;;;;;;4.20;1.30;;;21.60;99.90;;;;;;5073005;28;20224;-61
2021/06/05 05:46:32;;;;;;;2.78;1.13;;;21.60;99.90;;;;;;5072998;28;20212;-60
2021/06/05 05:48:59;;;;;;;6.10;1.40;;;21.60;99.90;;;;;;5073135;28;20205;-60
2021/06/05 05:51:25;;;;;;;3.53;1.30;;;21.50;99.90;;;;;;5073059;28;20201;-60
2021/06/05 05:53:52;;;;;;;1.95;1.20;;;21.50;99.90;;;;;;5072851;28;20229;-61
2021/06/05 05:56:21;;;;;;;2.08;1.48;;;21.40;99.90;;;;;;5073217;28;20201;-60
2021/06/05 05:58:51;;;;;;;2.20;1.08;;;21.40;99.90;;;;;;5072624;28;20212;-61
2021/06/05 06:01:20;;;;;;;1.90;1.33;;;21.50;99.90;;;;;;5073061;28;20228;-59
2021/06/05 06:03:48;;;;;;;3.40;1.73;;;21.90;99.90;;;;;;5072819;28;20232;-60
2021/06/05 06:06:15;;;;;;;5.68;2.70;;;22.20;99.90;;;;;;5072982;28;20631;-60
2021/06/05 06:08:42;;;;;;;2.60;1.95;;;22.60;99.90;;;;;;5072591;28;20213;-61
2021/06/05 06:11:09;;;;;;;2.72;1.45;;;22.90;99.90;;;;;;5072620;28;20236;-61
2021/06/05 06:13:36;;;;;;;4.13;1.27;;;23.20;99.90;;;;;;5072394;28;20220;-61
2021/06/05 06:16:03;;;;;;;2.05;0.98;;;23.50;99.90;;;;;;5072343;28;20213;-61
2021/06/05 06:18:29;;;;;;;1.80;1.10;;;23.90;99.90;;;;;;5072401;28;20205;-61
2021/06/05 06:20:57;;;;;;;3.28;1.23;;;24.20;99.90;;;;;;5072402;28;20696;-61
2021/06/05 06:23:26;;;;;;;2.50;1.00;;;24.50;99.90;;;;;;5072709;28;20205;-61
2021/06/05 06:25:55;;;;;;;1.95;1.15;;;24.90;99.90;;;;;;5072244;28;20678;-61
2021/06/05 06:28:23;;;;;;;2.25;1.33;;;25.30;99.70;;;;;;5072525;28;20211;-61
2021/06/05 06:30:51;;;;;;;3.45;1.48;;;25.70;99.20;;;;;;5072359;28;20204;-61
2021/06/05 06:33:18;;;;;;;2.33;1.40;;;26.10;98.00;;;;;;5072146;28;20201;-61
2021/06/05 06:35:45;;;;;;;3.67;2.60;;;26.40;96.90;;;;;;5071950;28;20225;-61
2021/06/05 06:38:24;;;;;;;3.70;1.25;;;26.40;96.30;;;;;;5072091;28;20209;-61
2021/06/05 06:40:50;;;;;;;2.17;1.55;;;26.40;96.30;;;;;;5072076;28;20225;-61
2021/06/05 06:43:20;;;;;;;3.10;1.25;;;26.30;96.00;;;;;;5071854;28;20263;-61
2021/06/05 06:45:46;;;;;;;3.40;2.60;;;26.20;96.00;;;;;;5071771;28;20233;-61
2021/06/05 06:48:13;;;;;;;3.63;1.80;;;26.20;96.10;;;;;;5071708;28;20212;-61
2021/06/05 06:50:39;;;;;;;4.32;1.50;;;26.20;95.90;;;;;;5071663;28;20208;-62
2021/06/05 06:53:05;;;;;;;2.83;1.05;;;26.20;95.60;;;;;;5071639;28;20612;-61
2021/06/05 06:55:33;;;;;;;1.58;1.33;;;26.40;95.10;;;;;;5072092;28;20228;-61
2021/06/05 06:58:00;;;;;;;6.18;3.60;;;26.60;94.80;;;;;;5072144;28;20205;-62
2021/06/05 07:00:30;;;;;;;1.80;1.27;;;26.80;93.90;;;;;;5071625;28;20221;-61
2021/06/05 07:02:56;;;;;;;4.65;2.40;;;26.90;94.10;;;;;;5071799;28;20254;-61
2021/06/05 07:05:22;;;;;;;2.63;1.58;;;27.10;93.60;;;;;;5071226;28;20670;-61
2021/06/05 07:07:49;;;;;;;5.60;3.05;;;27.20;93.10;;;;;;5071444;28;20680;-61
2021/06/05 07:10:17;;;;;;;4.32;1.70;;;27.30;92.60;;;;;;5072141;28;20208;-61
2021/06/05 07:12:45;;;;;;;3.28;1.55;;;27.60;92.30;;;;;;5072326;28;20209;-61
2021/06/05 07:15:13;;;;;;;3.03;1.13;;;27.70;91.30;;;;;;5072022;28;20723;-61
2021/06/05 07:17:39;;;;;;;3.72;1.20;;;27.80;91.60;;;;;;5072192;28;20212;-59
2021/06/05 07:20:07;;;;;;;1.35;0.90;;;27.80;91.90;;;;;;5071914;28;20217;-59
2021/06/05 07:22:33;;;;;;;6.82;0.90;;;28.20;91.40;;;;;;5071993;28;20212;-59
2021/06/05 07:24:59;;;;;;;1.98;0.90;;;29.70;87.70;;;;;;5072026;28;20526;-60
2021/06/05 07:27:25;;;;;;;2.33;1.13;;;30.90;80.70;;;;;;5070864;28;20205;-60
2021/06/05 07:29:53;;;;;;;2.92;1.20;;;32.10;76.60;;;;;;5071521;28;20630;-60
2021/06/05 07:32:19;;;;;;;2.08;0.80;;;33.70;70.70;;;;;;5071048;28;20204;-60
2021/06/05 07:34:45;;;;;;;4.95;2.88;;;35.00;64.00;;;;;;5071341;28;20220;-60
2021/06/05 07:37:12;;;;;;;2.05;1.30;;;35.50;61.90;;;;;;5071711;28;20702;-60
2021/06/05 07:39:39;;;;;;;2.65;1.10;;;36.00;60.00;;;;;;5071652;28;20255;-60
2021/06/05 07:42:07;;;;;;;2.05;1.05;;;35.90;58.60;;;;;;5071149;28;20228;-59
2021/06/05 07:44:34;;;;;;;2.00;1.20;;;35.50;58.40;;;;;;5071188;28;20228;-60
2021/06/05 07:47:03;;;;;;;2.40;1.23;;;35.10;59.10;;;;;;5071334;28;20201;-60
2021/06/05 07:49:32;;;;;;;2.83;1.13;;;34.80;59.30;;;;;;5071957;28;20208;-59
2021/06/05 07:52:00;;;;;;;1.50;0.90;;;34.10;58.80;;;;;;5071598;28;20254;-60
2021/06/05 07:54:26;;;;;;;1.70;1.20;;;33.30;62.20;;;;;;5071673;28;20270;-60
2021/06/05 07:56:53;;;;;;;4.05;0.80;;;33.50;62.00;;;;;;5071309;28;20205;-59
2021/06/05 07:59:22;;;;;;;3.30;1.27;;;34.20;60.60;;;;;;5071165;28;20211;-60
2021/06/05 08:01:48;;;;;;;2.55;1.00;;;35.60;57.80;;;;;;5071001;28;20221;-60
2021/06/05 08:04:17;;;;;;;3.22;1.52;;;36.90;54.30;;;;;;5071070;28;20236;-59
2021/06/05 08:06:44;;;;;;;2.25;1.20;;;37.10;53.90;;;;;;5071188;28;20215;-59
2021/06/05 08:09:11;;;;;;;3.15;1.10;;;37.00;54.40;;;;;;5070882;28;20660;-59
2021/06/05 08:11:38;;;;;;;1.92;1.30;;;36.80;54.10;;;;;;5070974;28;20197;-59
2021/06/05 08:14:04;;;;;;;4.05;1.50;;;36.70;54.10;;;;;;5070852;28;20224;-60
2021/06/05 08:16:36;;;;;;;2.17;1.38;;;36.80;54.10;;;;;;5070718;28;20680;-59
2021/06/05 08:19:03;;;;;;;4.22;1.70;;;36.20;54.00;;;;;;5070948;28;20205;-59
2021/06/05 08:21:30;;;;;;;2.17;1.30;;;35.00;56.90;;;;;;5070949;28;20228;-59
2021/06/05 08:23:56;;;;;;;2.35;1.30;;;34.00;58.60;;;;;;5070587;28;20229;-59
2021/06/05 08:26:23;;;;;;;2.45;1.58;;;32.80;61.60;;;;;;5070972;28;20213;-59
2021/06/05 08:28:49;;;;;;;5.57;1.73;;;31.60;64.90;;;;;;5070534;28;20213;-59
2021/06/05 08:31:18;;;;;;;3.90;1.58;;;30.70;67.50;;;;;;5070780;28;20205;-59
2021/06/05 08:33:45;;;;;;;2.67;1.48;;;30.10;70.20;;;;;;5070339;28;20232;-59
2021/06/05 08:36:13;;;;;;;3.13;1.60;;;29.80;71.60;;;;;;5070737;28;20217;-59
2021/06/05 08:38:41;;;;;;;2.70;1.60;;;30.10;72.10;;;;;;5070865;28;20209;-59
2021/06/05 08:41:16;;;;;;;2.92;1.70;;;30.50;71.30;;;;;;5074046;28;20227;-59
2021/06/05 08:43:46;;;;;;;4.28;1.80;;;31.00;70.30;;;;;;5074256;28;20200;-59
2021/06/05 08:46:15;;;;;;;12.15;2.72;;;30.80;69.70;;;;;;5074571;28;20616;-59
2021/06/05 08:48:42;;;;;;;3.42;1.73;;;30.30;71.60;;;;;;5073979;28;20215;-59
2021/06/05 08:51:18;;;;;;;2.70;1.70;;;30.00;72.50;;;;;;5074221;28;20329;-59
2021/06/05 08:53:45;;;;;;;3.65;1.88;;;29.60;73.00;;;;;;5073703;28;20586;-59
2021/06/05 08:56:15;;;;;;;3.45;1.60;;;29.20;74.50;;;;;;5074026;28;20201;-59
2021/06/05 08:58:45;;;;;;;4.78;1.70;;;28.70;75.80;;;;;;5073897;28;20220;-59
2021/06/05 09:01:15;;;;;;;4.78;2.20;;;28.40;77.40;;;;;;5073785;28;20319;-59
2021/06/05 09:03:42;;;;;;;2.50;1.70;;;28.10;78.90;;;;;;5073549;28;20224;-59
2021/06/05 09:06:15;;;;;;;3.42;1.30;;;27.70;80.60;;;;;;5073595;28;20689;-59
2021/06/05 09:08:41;;;;;;;3.47;1.23;;;27.10;82.90;;;;;;5073727;28;20209;-59
2021/06/05 09:11:11;;;;;;;2.70;1.95;;;27.00;84.10;;;;;;5074022;28;20208;-59
2021/06/05 09:13:39;;;;;;;3.58;1.45;;;27.00;85.30;;;;;;5073484;28;20205;-59
2021/06/05 09:16:35;;;;;;;3.17;1.98;;;27.00;85.80;;;;;;5073501;28;20212;-59
2021/06/05 09:19:03;;;;;;;4.97;2.05;;;27.10;85.70;;;;;;5073730;28;20193;-59
2021/06/05 09:21:32;;;;;;;4.88;2.55;;;27.20;85.90;;;;;;5073956;28;20228;-59
2021/06/05 09:24:18;;;;;;;5.28;1.77;;;27.30;85.20;;;;;;5073864;28;20232;-59
2021/06/05 09:27:00;;;;;;;2.72;1.52;;;27.50;85.00;;;;;;5073033;28;20238;-59
2021/06/05 09:29:27;;;;;;;1.98;1.45;;;27.70;84.70;;;;;;5073236;28;20684;-58
2021/06/05 09:31:57;;;;;;;3.53;1.50;;;27.90;84.40;;;;;;5073153;28;20583;-58
2021/06/05 09:34:29;;;;;;;2.78;1.40;;;28.00;83.90;;;;;;5073516;28;20274;-59
2021/06/05 09:36:55;;;;;;;2.90;1.55;;;28.00;83.30;;;;;;5073252;28;20209;-67
2021/06/05 09:39:38;;;;;;;2.22;1.38;;;28.20;83.40;;;;;;5073146;28;20282;-63
2021/06/05 09:42:08;;;;;;;3.85;1.45;;;28.50;81.20;;;;;;5073131;28;20224;-59
2021/06/05 09:44:41;;;;;;;2.40;1.30;;;28.70;80.80;;;;;;5072980;28;20253;-60
2021/06/05 09:47:22;;;;;;;2.53;1.30;;;28.80;81.40;;;;;;5073147;28;20204;-59
2021/06/05 09:49:53;;;;;;;2.10;1.17;;;29.00;79.20;;;;;;5072746;28;20212;-60
2021/06/05 09:52:33;;;;;;;1.40;0.80;;;29.00;79.30;;;;;;5072522;28;20197;-60
2021/06/05 09:55:06;;;;;;;1.42;1.13;;;29.10;78.50;;;;;;5073104;28;20236;-59
2021/06/05 09:57:41;;;;;;;2.92;1.23;;;29.10;78.70;;;;;;5072853;28;20209;-59
2021/06/05 10:00:15;;;;;;;2.15;1.30;;;28.90;79.50;;;;;;5072648;28;20298;-59
2021/06/05 10:02:44;;;;;;;1.92;1.23;;;29.00;80.20;;;;;;5072698;28;20205;-60
2021/06/05 10:05:20;;;;;;;1.60;1.10;;;29.20;79.40;;;;;;5072368;28;20232;-60
2021/06/05 10:07:47;;;;;;;1.63;1.10;;;29.40;79.00;;;;;;5072460;28;20686;-59
2021/06/05 10:10:34;;;;;;;3.70;1.30;;;29.60;79.20;;;;;;5072301;28;20676;-59
2021/06/05 10:13:06;;;;;;;1.45;0.88;;;29.60;78.60;;;;;;5072636;28;20201;-62
2021/06/05 10:15:39;;;;;;;1.95;1.15;;;29.70;77.80;;;;;;5092022;28;20228;-65
2021/06/05 10:18:13;;;;;;;2.53;1.30;;;29.60;78.00;;;;;;5092660;28;20694;-65
2021/06/05 10:20:46;;;;;;;3.53;1.20;;;29.60;80.00;;;;;;5092754;28;20216;-65
2021/06/05 10:23:17;;;;;;;4.30;1.15;;;29.70;79.60;;;;;;5092947;28;20233;-65
2021/06/05 10:25:47;;;;;;;1.55;1.20;;;29.90;78.30;;;;;;5092175;28;20236;-63
2021/06/05 10:28:19;;;;;;;3.58;1.48;;;29.80;78.00;;;;;;5092663;28;20736;-63
2021/06/05 10:30:50;;;;;;;2.20;1.33;;;29.80;78.00;;;;;;5091350;28;20216;-62
2021/06/05 10:33:32;;;;;;;4.47;1.70;;;29.60;78.40;;;;;;5071396;28;20212;-62
2021/06/05 10:36:00;;;;;;;2.70;1.08;;;29.50;78.70;;;;;;5072114;28;20588;-64
2021/06/05 10:38:35;;;;;;;1.50;0.93;;;29.30;78.60;;;;;;5072737;28;20215;-60
2021/06/05 10:41:01;;;;;;;3.20;1.10;;;29.10;79.70;;;;;;5072280;28;20225;-61
2021/06/05 10:43:28;;;;;;;3.75;1.52;;;29.00;80.10;;;;;;5071645;28;20216;-60
2021/06/05 10:45:57;;;;;;;1.80;1.20;;;28.90;81.00;;;;;;5071764;28;20254;-64
2021/06/05 10:48:28;;;;;;;2.35;1.30;;;28.70;82.00;;;;;;5071733;28;20272;-61
2021/06/05 10:51:04;;;;;;;3.63;1.60;;;28.50;82.60;;;;;;5072114;28;20201;-59
2021/06/05 10:53:34;;;;;;;2.80;1.42;;;28.30;83.10;;;;;;5072172;28;20204;-58
2021/06/05 10:56:02;;;;;;;4.75;2.45;;;28.20;83.60;;;;;;5072169;28;20232;-58
2021/06/05 10:58:44;;;;;;;1.48;1.10;;;28.10;84.00;;;;;;5071408;28;20739;-58
2021/06/05 11:01:13;;;;;;;2.60;1.42;;;27.90;83.80;;;;;;5071983;28;20450;-58
2021/06/05 11:03:52;;;;;;;1.63;0.98;;;27.80;85.50;;;;;;5071268;28;20205;-59
2021/06/05 11:06:22;;;;;;;2.75;1.10;;;27.70;87.80;;;;;;5071422;28;20205;-58
2021/06/05 11:08:51;;;;;;;4.40;1.55;;;27.50;87.40;;;;;;5071199;28;20207;-58
2021/06/05 11:11:40;;;;;;;1.42;1.17;;;27.30;88.80;;;;;;5071249;28;20212;-61
2021/06/05 11:14:31;;;;;;;2.15;1.00;;;27.20;90.90;;;;;;5071022;28;20228;-61
2021/06/05 11:17:10;;;;;;;3.25;1.95;;;27.40;91.50;;;;;;5071010;28;20669;-62
2021/06/05 11:19:39;;;;;;;2.78;1.60;;;27.60;91.60;;;;;;5071074;28;20208;-61
2021/06/05 11:22:07;;;;;;;2.20;1.70;;;27.80;91.40;;;;;;5071398;28;20282;-63
2021/06/05 11:24:34;;;;;;;1.63;1.30;;;27.90;91.50;;;;;;5071047;28;20286;-62
2021/06/05 11:27:03;;;;;;;4.45;1.55;;;28.00;91.30;;;;;;5071556;28;20270;-63
2021/06/05 11:29:59;;;;;;;1.90;1.17;;;28.00;91.40;;;;;;5071196;28;20258;-62
2021/06/05 11:32:59;;;;;;;2.95;1.35;;;28.10;91.80;;;;;;5071795;28;20224;-62
2021/06/05 11:35:41;;;;;;;4.30;1.25;;;28.30;91.40;;;;;;5071159;28;20220;-62
2021/06/05 11:38:10;;;;;;;2.05;1.30;;;28.50;90.20;;;;;;5071010;28;20224;-62
2021/06/05 11:40:59;;;;;;;2.55;1.60;;;28.70;90.30;;;;;;5071088;28;20229;-61
2021/06/05 11:43:47;;;;;;;1.85;1.20;;;28.90;91.10;;;;;;5070755;28;20215;-62
2021/06/05 11:46:45;;;;;;;1.90;1.60;;;29.00;87.80;;;;;;5071545;28;20270;-62
2021/06/05 11:49:50;;;;;;;2.05;1.38;;;29.10;88.50;;;;;;5070960;28;20575;-62
2021/06/05 11:52:43;;;;;;;1.95;1.40;;;29.20;86.40;;;;;;5071642;28;20257;-61
2021/06/05 11:55:28;;;;;;;7.20;1.60;;;29.30;86.90;;;;;;5071159;28;20235;-63
2021/06/05 11:58:09;;;;;;;1.75;1.50;;;29.60;85.80;;;;;;5071101;28;20235;-62
2021/06/05 12:00:39;;;;;;;2.42;1.35;;;30.00;85.90;;;;;;5070821;28;20221;-62
2021/06/05 12:03:10;;;;;;;1.50;1.40;;;30.10;83.50;;;;;;5070792;28;20240;-62
2021/06/05 12:05:38;;;;;;;1.92;1.35;;;30.30;81.70;;;;;;5070558;28;20385;-63
2021/06/05 12:08:22;;;;;;;1.80;1.58;;;30.20;83.60;;;;;;5070918;28;20307;-62
2021/06/05 12:10:48;;;;;;;2.50;1.52;;;30.20;81.10;;;;;;5071019;28;20200;-62
2021/06/05 12:13:27;;;;;;;3.03;1.85;;;29.90;82.30;;;;;;5071136;28;20282;-63
2021/06/05 12:15:56;;;;;;;3.92;1.70;;;29.80;83.40;;;;;;5074972;28;20208;-63
2021/06/05 12:18:27;;;;;;;2.80;1.75;;;29.70;81.20;;;;;;5074689;28;20663;-63
2021/06/05 12:20:59;;;;;;;3.70;1.50;;;29.90;83.10;;;;;;5075198;28;20228;-62
2021/06/05 12:23:30;;;;;;;4.47;1.73;;;30.10;82.20;;;;;;5075025;28;20212;-63
2021/06/05 12:26:08;;;;;;;6.30;1.85;;;30.20;82.00;;;;;;5075037;28;20204;-63
2021/06/05 12:28:37;;;;;;;5.00;1.80;;;30.20;83.40;;;;;;5074919;28;20235;-64
2021/06/05 12:31:19;;;;;;;6.72;2.05;;;30.10;87.30;;;;;;5075196;28;20201;-64
2021/06/05 12:33:57;;;;;;;5.28;2.60;;;29.80;90.60;;;;;;5074867;28;20225;-61
2021/06/05 12:36:26;;;;;;;5.60;1.90;;;29.50;91.40;;;;;;5075047;28;20215;-64
2021/06/05 12:38:57;;;;;;;2.97;1.70;;;29.20;91.70;;;;;;5074854;28;20707;-63
2021/06/05 12:41:27;;;;;;;2.35;1.90;;;29.00;92.50;;;;;;5074652;28;20757;-62
2021/06/05 12:43:54;;;;;;;2.88;1.60;;;28.90;92.00;;;;;;5074262;28;20220;-63
2021/06/05 12:46:25;;;;;;;2.33;1.45;;;29.00;91.50;;;;;;5074813;28;20209;-62
2021/06/05 12:48:57;;;;;;;2.65;1.30;;;29.10;90.90;;;;;;5074841;28;20209;-62
2021/06/05 12:51:28;;;;;;;4.18;2.80;;;29.30;86.10;;;;;;5073901;28;20197;-62
2021/06/05 12:54:01;;;;;;;3.55;1.58;;;29.70;86.50;;;;;;5073932;28;20240;-63
2021/06/05 12:56:32;;;;;;;1.60;1.30;;;30.10;89.70;;;;;;5073937;28;20209;-62
2021/06/05 12:59:01;;;;;;;2.92;1.70;;;30.50;85.90;;;;;;5073931;28;20212;-63